Time;durP1;ratioP1;P1;durP2;ratioP2;P2;SDS_P1;SDS_P2;PMS_P1;PMS_P2;Temp;Humidity;BMP_temperature;BMP_pressure;BME280_temperature;BME280_humidity;BME280_pressure;Samples;Min_cycle;Max_cycle;Signal;HPM_P1;HPM_P2
2023/08/26 00:02:19;;;;;;;;;1.25;1.25;;;;;20.24;48.56;100687.91;5053532;28;62945;-64
2023/08/26 00:04:45;;;;;;;;;0.50;0.50;;;;;20.22;47.87;100690.69;5078024;28;47124;-64
2023/08/26 00:07:10;;;;;;;;;3.00;1.00;;;;;20.20;47.90;100687.28;5053739;28;45726;-64
2023/08/26 00:09:36;;;;;;;;;3.00;1.75;;;;;20.19;48.09;100682.06;5074501;28;66329;-64
2023/08/26 00:12:01;;;;;;;;;2.00;1.00;;;;;20.18;47.98;100686.50;5070575;28;45686;-64
2023/08/26 00:14:26;;;;;;;;;1.00;1.00;;;;;20.21;48.18;100682.81;5051728;28;46456;-64
2023/08/26 00:16:52;;;;;;;;;1.00;1.00;;;;;20.17;47.84;100686.59;5059571;28;45421;-64
2023/08/26 00:19:20;;;;;;;;;2.25;1.00;;;;;20.17;48.35;100684.81;5071514;28;45459;-64
2023/08/26 00:21:45;;;;;;;;;2.25;1.00;;;;;20.13;48.37;100682.47;5067289;28;45700;-64
2023/08/26 00:24:11;;;;;;;;;1.25;1.00;;;;;20.09;47.96;100676.50;5073392;27;57417;-65
2023/08/26 00:26:36;;;;;;;;;3.00;3.00;;;;;20.05;48.37;100681.19;5073713;28;45511;-64
2023/08/26 00:29:02;;;;;;;;;4.00;2.25;;;;;20.00;48.36;100670.00;5070994;28;45770;-64
2023/08/26 00:31:27;;;;;;;;;4.00;2.50;;;;;20.00;47.96;100683.28;5069209;28;65513;-63
2023/08/26 00:33:52;;;;;;;;;5.00;2.00;;;;;19.98;48.65;100671.94;5081170;28;69303;-64
2023/08/26 00:36:18;;;;;;;;;2.00;1.00;;;;;19.97;48.55;100670.22;5071901;28;45477;-64
2023/08/26 00:38:43;;;;;;;;;1.25;1.00;;;;;19.98;48.59;100676.41;5067532;28;54816;-64
2023/08/26 00:41:08;;;;;;;;;1.00;1.00;;;;;19.96;48.34;100663.22;5069594;28;45339;-64
2023/08/26 00:43:37;;;;;;;;;3.75;1.75;;;;;19.97;48.30;100675.53;5065478;28;68050;-63
2023/08/26 00:46:03;;;;;;;;;1.00;1.00;;;;;19.96;48.65;100667.69;5073608;28;45536;-64
2023/08/26 00:48:28;;;;;;;;;0.75;0.75;;;;;19.94;48.13;100672.22;5049515;28;47143;-64
2023/08/26 00:50:54;;;;;;;;;1.00;1.00;;;;;19.93;48.51;100671.38;5066335;27;70907;-64
2023/08/26 00:53:21;;;;;;;;;0.25;0.25;;;;;19.94;48.35;100670.44;5066361;28;46784;-64
2023/08/26 00:55:47;;;;;;;;;1.00;1.00;;;;;19.94;48.59;100666.91;5068340;28;45560;-63
2023/08/26 00:58:12;;;;;;;;;2.25;1.00;;;;;19.91;48.56;100667.97;5056666;27;69466;-63
2023/08/26 01:00:39;;;;;;;;;1.00;1.00;;;;;19.89;48.22;100657.47;5075274;27;45156;-64
2023/08/26 01:03:05;;;;;;;;;1.75;1.00;;;;;19.92;48.32;100656.41;5069687;27;47023;-64
2023/08/26 01:05:31;;;;;;;;;1.75;1.00;;;;;19.90;48.67;100664.50;5074507;28;45473;-64
2023/08/26 01:07:58;;;;;;;;;1.00;1.00;;;;;19.91;48.69;100666.16;5075541;28;66856;-63
2023/08/26 01:10:31;;;;;;;;;2.75;1.00;;;;;19.92;48.95;100662.56;5066146;27;46195;-63
2023/08/26 01:13:06;;;;;;;;;2.00;2.00;;;;;19.86;48.71;100659.47;5075746;28;45636;-63
2023/08/26 01:15:32;;;;;;;;;1.00;1.00;;;;;19.83;48.90;100657.88;5070547;28;45398;-63
2023/08/26 01:18:00;;;;;;;;;3.00;1.00;;;;;19.78;48.46;100659.13;5070331;28;67103;-64
2023/08/26 01:20:27;;;;;;;;;2.25;1.00;;;;;19.76;48.78;100667.22;5058637;28;45439;-64
2023/08/26 01:22:54;;;;;;;;;1.75;1.00;;;;;19.73;48.73;100667.38;5044709;28;46570;-65
2023/08/26 01:25:20;;;;;;;;;1.00;1.00;;;;;19.69;48.77;100668.56;5052430;28;71224;-64
2023/08/26 01:27:45;;;;;;;;;2.00;1.00;;;;;19.68;48.45;100670.34;5071659;27;45498;-63
2023/08/26 01:30:12;;;;;;;;;3.00;1.00;;;;;19.71;49.20;100675.44;5069985;28;54413;-65
2023/08/26 01:32:42;;;;;;;;;2.75;1.00;;;;;19.72;49.06;100663.88;5053258;28;47366;-65
2023/08/26 01:35:12;;;;;;;;;1.00;1.00;;;;;19.69;49.17;100663.25;5045343;28;45985;-64
2023/08/26 01:37:39;;;;;;;;;1.00;0.50;;;;;19.69;48.86;100668.56;5069850;27;45579;-64
2023/08/26 01:40:06;;;;;;;;;1.00;1.00;;;;;19.68;49.28;100665.03;5058198;28;45550;-64
2023/08/26 01:42:31;;;;;;;;;0.25;0.25;;;;;19.67;49.06;100660.69;5038662;28;47283;-64
2023/08/26 01:44:57;;;;;;;;;1.50;0.50;;;;;19.65;49.02;100656.41;5054818;28;45470;-63
2023/08/26 01:47:22;;;;;;;;;1.00;1.00;;;;;19.66;49.08;100661.63;5068591;27;45466;-64
2023/08/26 01:49:48;;;;;;;;;1.00;0.00;;;;;19.65;49.22;100648.44;5070437;28;45498;-64
2023/08/26 01:52:13;;;;;;;;;0.00;0.00;;;;;19.60;49.34;100654.09;5061916;27;70820;-63
2023/08/26 01:54:38;;;;;;;;;0.25;0.25;;;;;19.57;49.23;100643.66;5072236;27;68375;-64
2023/08/26 01:57:04;;;;;;;;;1.00;0.25;;;;;19.59;49.04;100646.22;5075325;27;49826;-64
2023/08/26 01:59:29;;;;;;;;;1.50;0.75;;;;;19.56;49.60;100646.41;5068845;28;45395;-64
2023/08/26 02:01:54;;;;;;;;;1.00;1.00;;;;;19.54;49.08;100650.00;5064491;27;59774;-64
2023/08/26 02:04:21;;;;;;;;;0.25;0.25;;;;;19.51;49.27;100642.25;5073788;27;67559;-65
2023/08/26 02:06:46;;;;;;;;;0.75;0.75;;;;;19.54;49.09;100635.88;5067527;28;46982;-63
2023/08/26 02:09:11;;;;;;;;;0.00;0.00;;;;;19.51;49.19;100639.59;5065660;27;70498;-64
2023/08/26 02:11:36;;;;;;;;;0.50;0.00;;;;;19.46;49.47;100635.53;5071849;28;67856;-64
2023/08/26 02:14:02;;;;;;;;;1.00;1.00;;;;;19.39;49.10;100632.44;5067749;27;70475;-63
2023/08/26 02:16:27;;;;;;;;;1.00;0.00;;;;;19.32;49.54;100626.69;5070859;27;45391;-64
2023/08/26 02:18:53;;;;;;;;;1.00;1.00;;;;;19.24;49.58;100630.78;5068805;27;45639;-63
2023/08/26 02:21:18;;;;;;;;;1.00;1.00;;;;;19.15;49.65;100634.88;5068289;27;46268;-63
2023/08/26 02:23:43;;;;;;;;;1.00;1.00;;;;;19.08;49.93;100631.78;5067475;28;69799;-64
2023/08/26 02:26:09;;;;;;;;;0.50;0.50;;;;;19.04;50.02;100629.44;5068771;27;58016;-67
2023/08/26 02:28:34;;;;;;;;;0.50;0.50;;;;;19.04;50.28;100632.09;5071135;27;69414;-67
2023/08/26 02:31:02;;;;;;;;;1.00;1.00;;;;;19.06;50.38;100628.38;5052171;28;60937;-67
2023/08/26 02:33:28;;;;;;;;;1.50;1.00;;;;;19.12;50.25;100632.44;5069170;28;45876;-67
2023/08/26 02:35:53;;;;;;;;;1.25;1.00;;;;;19.16;50.49;100629.50;5074876;28;66005;-67
2023/08/26 02:38:18;;;;;;;;;1.00;0.00;;;;;19.19;50.42;100627.59;5072078;28;58635;-67
2023/08/26 02:40:55;;;;;;;;;0.50;0.00;;;;;19.19;50.50;100622.28;5076774;28;45963;-67
2023/08/26 02:43:21;;;;;;;;;0.00;0.00;;;;;19.20;50.48;100624.00;5058609;28;45493;-68
2023/08/26 02:45:54;;;;;;;;;1.00;1.00;;;;;19.20;50.50;100629.31;5034734;28;47045;-67
2023/08/26 02:48:20;;;;;;;;;0.00;0.00;;;;;19.18;50.79;100617.94;5074698;27;45427;-68
2023/08/26 02:50:46;;;;;;;;;0.00;0.00;;;;;19.16;50.54;100621.53;5072242;27;45522;-68
2023/08/26 02:53:11;;;;;;;;;0.00;0.00;;;;;19.15;50.61;100621.63;5050846;28;45430;-68
2023/08/26 02:55:37;;;;;;;;;1.00;1.00;;;;;19.12;50.66;100619.16;5069711;28;67700;-67
2023/08/26 02:58:02;;;;;;;;;0.75;0.25;;;;;19.11;50.56;100614.81;5066858;28;45487;-67
2023/08/26 03:00:28;;;;;;;;;0.25;0.00;;;;;19.04;51.09;100609.06;5051420;28;46399;-68
2023/08/26 03:02:53;;;;;;;;;3.25;1.00;;;;;19.04;50.52;100605.56;5066061;28;45423;-68
2023/08/26 03:05:18;;;;;;;;;2.75;0.50;;;;;19.02;50.73;100608.31;5066825;27;67440;-67
2023/08/26 03:07:44;;;;;;;;;3.00;1.00;;;;;19.01;50.71;100605.75;5067455;28;70400;-67
2023/08/26 03:10:09;;;;;;;;;1.00;1.00;;;;;18.97;50.76;100603.28;5068087;28;46076;-67
2023/08/26 03:12:35;;;;;;;;;1.00;1.00;;;;;18.97;50.79;100607.75;5048749;28;45296;-67
2023/08/26 03:15:00;;;;;;;;;2.00;1.00;;;;;18.96;51.14;100606.03;5049764;28;45359;-67
2023/08/26 03:17:25;;;;;;;;;1.00;1.00;;;;;18.95;51.25;100613.16;5046764;28;68356;-68
2023/08/26 03:19:51;;;;;;;;;1.75;1.00;;;;;18.93;51.14;100601.81;5066930;27;45159;-68
2023/08/26 03:22:16;;;;;;;;;0.00;0.00;;;;;18.92;51.23;100600.09;5071156;28;45529;-67
2023/08/26 03:24:41;;;;;;;;;1.00;1.00;;;;;18.90;51.23;100604.63;5069776;28;60944;-68
2023/08/26 03:27:06;;;;;;;;;1.25;1.25;;;;;18.89;51.37;100599.44;5074782;27;45493;-68
2023/08/26 03:29:32;;;;;;;;;1.00;1.00;;;;;18.87;51.11;100599.53;5080189;27;69051;-68
2023/08/26 03:31:57;;;;;;;;;2.75;1.00;;;;;18.86;51.13;100595.19;5074216;27;68636;-68
2023/08/26 03:34:22;;;;;;;;;1.00;0.00;;;;;18.85;51.33;100598.78;5070042;27;61459;-67
2023/08/26 03:36:48;;;;;;;;;1.50;1.00;;;;;18.83;51.29;100599.84;5036834;27;54526;-68
2023/08/26 03:39:13;;;;;;;;;1.00;1.00;;;;;18.80;51.39;100600.84;5048307;28;76846;-68
2023/08/26 03:41:38;;;;;;;;;2.00;0.00;;;;;18.79;51.41;100602.66;5051551;28;68920;-68
2023/08/26 03:44:04;;;;;;;;;1.00;1.00;;;;;18.75;51.46;100601.16;5058555;27;45483;-68
2023/08/26 03:46:29;;;;;;;;;0.00;0.00;;;;;18.73;51.37;100594.22;5057793;28;45482;-68
2023/08/26 03:48:55;;;;;;;;;1.25;1.00;;;;;18.74;51.26;100598.59;5058038;28;63888;-67
2023/08/26 03:51:20;;;;;;;;;1.00;1.00;;;;;18.74;51.35;100595.94;5052194;28;51275;-68
2023/08/26 03:53:45;;;;;;;;;0.50;0.50;;;;;18.74;51.62;100596.78;5077755;28;45348;-67
2023/08/26 03:56:11;;;;;;;;;2.25;2.00;;;;;18.74;51.43;100599.44;5079737;27;69847;-68
2023/08/26 03:58:37;;;;;;;;;1.00;1.00;;;;;18.76;51.67;100588.72;5054603;28;45460;-69
2023/08/26 04:01:06;;;;;;;;;0.00;0.00;;;;;18.76;51.62;100597.53;5062477;28;45490;-68
2023/08/26 04:03:32;;;;;;;;;2.75;2.00;;;;;18.75;51.77;100598.50;5079055;27;45273;-68
2023/08/26 04:06:01;;;;;;;;;2.00;2.00;;;;;18.74;51.48;100601.25;5076508;27;45393;-68
2023/08/26 04:08:28;;;;;;;;;1.00;1.00;;;;;18.69;51.83;100592.72;5073349;28;45582;-68
2023/08/26 04:10:55;;;;;;;;;1.00;1.00;;;;;18.63;52.31;100606.34;5052704;28;45707;-68
2023/08/26 04:13:24;;;;;;;;;1.00;1.00;;;;;18.58;52.03;100596.91;5081220;27;45192;-68
2023/08/26 04:15:49;;;;;;;;;1.50;1.00;;;;;18.55;52.51;100596.25;5080911;27;45541;-68
2023/08/26 04:18:15;;;;;;;;;4.00;1.00;;;;;18.51;52.51;100595.56;5075902;27;46073;-67
2023/08/26 04:20:42;;;;;;;;;2.00;1.00;;;;;18.47;53.20;100593.19;5059162;28;68387;-68
2023/08/26 04:23:08;;;;;;;;;1.25;1.25;;;;;18.42;53.38;100590.00;5081251;27;45528;-67
2023/08/26 04:25:33;;;;;;;;;1.75;1.75;;;;;18.36;53.02;100585.94;5053350;28;45297;-68
2023/08/26 04:27:59;;;;;;;;;2.00;1.25;;;;;18.35;53.53;100593.03;5073488;28;71776;-67
2023/08/26 04:30:24;;;;;;;;;2.00;2.00;;;;;18.33;53.63;100605.53;5078765;27;67183;-67
2023/08/26 04:32:49;;;;;;;;;1.00;1.00;;;;;18.33;53.59;100591.44;5079181;28;60864;-67
2023/08/26 04:35:16;;;;;;;;;1.75;1.75;;;;;18.34;53.82;100588.69;5060233;28;71893;-67
2023/08/26 04:37:41;;;;;;;;;2.25;1.00;;;;;18.36;53.72;100588.56;5070160;27;45534;-67
2023/08/26 04:40:12;;;;;;;;;2.00;2.00;;;;;18.38;54.13;100590.19;5064853;27;57564;-68
2023/08/26 04:42:38;;;;;;;;;1.00;1.00;;;;;18.42;53.95;100590.00;5081218;28;45552;-67
2023/08/26 04:45:03;;;;;;;;;1.25;1.00;;;;;18.45;53.87;100592.44;5077407;28;45430;-68
2023/08/26 04:47:29;;;;;;;;;2.25;2.00;;;;;18.49;53.93;100599.28;5078624;27;46035;-68
2023/08/26 04:49:54;;;;;;;;;4.00;2.00;;;;;18.52;54.19;100602.59;5043042;28;69304;-67
2023/08/26 04:52:19;;;;;;;;;1.00;1.00;;;;;18.55;54.14;100598.88;5074022;27;60116;-66
2023/08/26 04:54:45;;;;;;;;;1.00;1.00;;;;;18.54;54.43;100589.25;5076850;27;69406;-67
2023/08/26 04:57:10;;;;;;;;;1.75;1.25;;;;;18.50;54.24;100601.84;5078389;27;65005;-68
2023/08/26 04:59:36;;;;;;;;;2.75;1.25;;;;;18.49;54.65;100597.47;5078317;27;70504;-68
2023/08/26 05:02:03;;;;;;;;;0.75;0.75;;;;;18.48;54.42;100595.75;5067488;27;50840;-68
2023/08/26 05:04:28;;;;;;;;;1.25;0.25;;;;;18.49;54.51;100601.94;5080014;27;45628;-68
2023/08/26 05:06:54;;;;;;;;;4.00;1.75;;;;;18.49;54.59;100601.94;5058164;28;45352;-66
2023/08/26 05:09:19;;;;;;;;;1.00;1.00;;;;;18.46;54.91;100600.31;5042519;28;54099;-67
2023/08/26 05:11:44;;;;;;;;;2.00;0.25;;;;;18.46;54.96;100610.06;5059989;27;69364;-67
2023/08/26 05:14:10;;;;;;;;;0.75;0.75;;;;;18.47;55.33;100614.41;5079555;27;63925;-67
2023/08/26 05:16:35;;;;;;;;;3.00;1.00;;;;;18.46;54.83;100618.84;5052690;28;60535;-67
2023/08/26 05:19:00;;;;;;;;;4.00;1.00;;;;;18.49;55.43;100623.97;5072793;28;57562;-67
2023/08/26 05:21:25;;;;;;;;;1.50;1.00;;;;;18.48;55.18;100621.41;5071103;28;70308;-67
2023/08/26 05:23:51;;;;;;;;;1.75;1.75;;;;;18.47;55.34;100617.94;5076646;28;65916;-67
2023/08/26 05:26:16;;;;;;;;;1.00;1.00;;;;;18.46;54.87;100621.50;5063474;27;71608;-67
2023/08/26 05:28:41;;;;;;;;;1.25;1.00;;;;;18.44;55.04;100626.06;5076412;28;45300;-67
2023/08/26 05:31:07;;;;;;;;;4.00;1.25;;;;;18.41;55.29;100623.59;5071901;27;45967;-67
2023/08/26 05:33:32;;;;;;;;;1.00;1.00;;;;;18.38;55.31;100621.16;5078698;28;65358;-66
2023/08/26 05:35:57;;;;;;;;;1.00;1.00;;;;;18.34;55.72;100622.25;5080461;27;45330;-67
2023/08/26 05:38:23;;;;;;;;;5.00;1.00;;;;;18.28;56.10;100618.19;5073930;27;68892;-67
2023/08/26 05:40:48;;;;;;;;;0.75;0.75;;;;;18.26;55.41;100624.56;5055375;28;67416;-67
2023/08/26 05:43:13;;;;;;;;;3.50;1.00;;;;;18.19;55.68;100611.66;5069109;28;50535;-67
2023/08/26 05:45:39;;;;;;;;;1.75;1.00;;;;;18.19;55.97;100610.81;5079695;27;47568;-67
2023/08/26 05:48:04;;;;;;;;;3.00;1.00;;;;;18.16;55.91;100609.19;5058451;28;45366;-67
2023/08/26 05:50:30;;;;;;;;;1.50;0.75;;;;;18.18;56.49;100614.41;5057440;28;45534;-68
2023/08/26 05:52:55;;;;;;;;;2.50;1.25;;;;;18.15;56.11;100601.34;5063636;28;55123;-68
2023/08/26 05:55:21;;;;;;;;;1.50;1.00;;;;;18.14;56.61;100607.59;5074948;27;73206;-67
2023/08/26 05:57:47;;;;;;;;;0.75;0.75;;;;;18.12;56.45;100605.03;5076607;27;45459;-68
2023/08/26 06:00:13;;;;;;;;;1.00;1.00;;;;;18.12;56.50;100607.69;5070551;27;66164;-68
2023/08/26 06:02:38;;;;;;;;;1.00;1.00;;;;;18.12;56.51;100614.78;5073410;27;45162;-68
2023/08/26 06:05:03;;;;;;;;;1.25;1.00;;;;;18.10;56.52;100617.53;5075868;27;58307;-68
2023/08/26 06:07:29;;;;;;;;;1.75;1.00;;;;;18.12;56.50;100614.78;5074095;27;45436;-68
2023/08/26 06:09:54;;;;;;;;;0.75;0.75;;;;;18.08;57.01;100618.53;5066526;28;71658;-68
2023/08/26 06:12:19;;;;;;;;;2.50;0.50;;;;;18.08;56.46;100618.53;5073514;27;65997;-68
2023/08/26 06:14:45;;;;;;;;;2.00;1.25;;;;;18.09;56.74;100620.25;5073650;28;46799;-67
2023/08/26 06:17:10;;;;;;;;;1.75;0.75;;;;;18.07;56.71;100620.34;5066453;27;62550;-67
2023/08/26 06:19:36;;;;;;;;;1.00;1.00;;;;;18.07;56.50;100625.66;5061696;28;45540;-67
2023/08/26 06:22:01;;;;;;;;;1.00;1.00;;;;;18.07;56.51;100628.28;5068023;27;45601;-67
2023/08/26 06:24:27;;;;;;;;;1.50;1.50;;;;;18.09;56.49;100625.56;5078659;27;45456;-68
2023/08/26 06:26:53;;;;;;;;;0.75;0.75;;;;;18.10;56.63;100621.97;5074004;28;45435;-68
2023/08/26 06:29:19;;;;;;;;;1.00;1.00;;;;;18.08;56.64;100629.13;5072081;28;45720;-67
2023/08/26 06:31:44;;;;;;;;;1.00;1.00;;;;;18.06;56.65;100623.97;5063410;27;45521;-68
2023/08/26 06:34:10;;;;;;;;;1.00;1.00;;;;;18.06;56.68;100623.97;5072923;27;45345;-67
2023/08/26 06:36:35;;;;;;;;;5.00;0.75;;;;;18.05;56.86;100613.47;5075648;27;46338;-67
2023/08/26 06:39:03;;;;;;;;;3.50;0.25;;;;;18.07;56.78;100614.22;5071415;28;45330;-67
2023/08/26 06:41:29;;;;;;;;;3.50;1.00;;;;;18.07;56.84;100620.34;5074737;27;45674;-68
2023/08/26 06:43:54;;;;;;;;;2.25;1.00;;;;;18.10;56.97;100624.63;5066673;28;45362;-67
2023/08/26 06:46:19;;;;;;;;;1.00;1.00;;;;;18.08;57.11;100611.47;5055345;28;71445;-68
2023/08/26 06:48:45;;;;;;;;;2.00;2.00;;;;;18.12;56.90;100620.94;5073982;28;59754;-67
2023/08/26 06:51:10;;;;;;;;;2.75;1.00;;;;;18.12;56.67;100617.44;5062867;28;69114;-67
2023/08/26 06:53:35;;;;;;;;;1.50;1.50;;;;;18.18;56.58;100620.56;5070197;27;55588;-67
2023/08/26 06:56:00;;;;;;;;;2.00;2.00;;;;;18.18;56.31;100609.09;5070136;28;66711;-63
2023/08/26 06:58:26;;;;;;;;;5.25;3.00;;;;;18.12;56.52;100614.78;5070445;27;45478;-63
2023/08/26 07:00:52;;;;;;;;;3.00;2.50;;;;;18.06;56.68;100621.31;5074571;27;71330;-64
2023/08/26 07:03:18;;;;;;;;;3.50;2.00;;;;;18.01;57.04;100613.63;5079439;27;46969;-63
2023/08/26 07:05:45;;;;;;;;;5.75;2.00;;;;;17.95;57.11;100618.44;5083116;27;45431;-63
2023/08/26 07:08:12;;;;;;;;;1.75;1.25;;;;;17.91;57.45;100619.56;5083416;28;45478;-63
2023/08/26 07:10:37;;;;;;;;;2.75;1.00;;;;;17.88;57.42;100619.75;5074533;28;45204;-63
2023/08/26 07:13:03;;;;;;;;;0.00;0.00;;;;;17.81;57.53;100619.22;5073828;28;75231;-63
2023/08/26 07:15:28;;;;;;;;;0.75;0.00;;;;;17.76;57.55;100619.50;5091004;27;45371;-63
2023/08/26 07:17:54;;;;;;;;;2.00;2.00;;;;;17.80;57.83;100620.19;5074650;27;45269;-63
2023/08/26 07:20:20;;;;;;;;;1.00;1.00;;;;;17.79;57.65;100621.09;5078860;27;46031;-64
2023/08/26 07:22:46;;;;;;;;;1.00;1.00;;;;;17.76;57.95;100622.16;5080932;28;47048;-63
2023/08/26 07:25:11;;;;;;;;;1.00;0.50;;;;;17.76;58.34;100616.88;5064294;28;45608;-63
2023/08/26 07:27:38;;;;;;;;;0.75;0.75;;;;;17.81;57.84;100616.56;5061056;28;45434;-63
2023/08/26 07:30:04;;;;;;;;;2.50;1.00;;;;;17.83;58.00;100615.56;5068836;28;45588;-63
2023/08/26 07:32:29;;;;;;;;;1.00;1.00;;;;;17.89;58.12;100616.16;5069759;28;45383;-64
2023/08/26 07:34:55;;;;;;;;;0.00;0.00;;;;;17.95;57.68;100615.78;5063007;28;45333;-64
2023/08/26 07:37:20;;;;;;;;;1.00;1.00;;;;;17.95;58.04;100615.78;5067027;28;57807;-64
2023/08/26 07:39:48;;;;;;;;;0.25;0.25;;;;;17.95;58.38;100606.03;5077904;28;45498;-64
2023/08/26 07:42:14;;;;;;;;;1.75;0.75;;;;;18.00;58.40;100611.06;5061231;28;48313;-65
2023/08/26 07:44:40;;;;;;;;;2.00;1.00;;;;;18.09;58.63;100613.16;5068061;27;45346;-72
2023/08/26 07:47:05;;;;;;;;;3.00;0.50;;;;;18.29;57.64;100608.44;5062318;28;66302;-72
2023/08/26 07:49:30;;;;;;;;;1.00;1.00;;;;;18.39;57.74;100609.59;5076234;28;45386;-73
2023/08/26 07:51:56;;;;;;;;;0.75;0.00;;;;;18.46;57.93;100613.56;5071574;28;56064;-73
2023/08/26 07:54:21;;;;;;;;;1.50;1.00;;;;;18.59;57.71;100613.63;5069859;27;61392;-73
2023/08/26 07:56:46;;;;;;;;;5.75;1.75;;;;;18.65;57.30;100623.88;5071872;28;45245;-73
2023/08/26 07:59:12;;;;;;;;;1.00;1.00;;;;;18.76;57.27;100628.50;5064298;28;65033;-72
2023/08/26 08:01:38;;;;;;;;;2.00;0.50;;;;;18.93;56.98;100627.47;5065216;28;48354;-73
2023/08/26 08:04:03;;;;;;;;;1.00;1.00;;;;;19.04;56.88;100626.78;5061236;28;45396;-72
2023/08/26 08:06:29;;;;;;;;;1.00;0.75;;;;;19.20;56.94;100632.78;5081482;28;45319;-72
2023/08/26 08:08:54;;;;;;;;;1.00;1.00;;;;;19.29;56.38;100624.22;5051826;28;45641;-72
2023/08/26 08:11:19;;;;;;;;;1.75;1.00;;;;;19.47;56.02;100634.59;5067249;27;45502;-73
2023/08/26 08:13:45;;;;;;;;;3.00;0.75;;;;;19.55;55.92;100634.94;5070899;27;45515;-77
2023/08/26 08:16:10;;;;;;;;;0.75;0.75;;;;;19.58;55.14;100639.19;5076624;27;58462;-77
2023/08/26 08:18:37;;;;;;;;;0.25;0.00;;;;;19.65;55.50;100633.34;5079510;27;45616;-74
2023/08/26 08:21:04;;;;;;;;;1.00;0.00;;;;;19.74;55.52;100645.19;5064430;27;47030;-75
2023/08/26 08:23:29;;;;;;;;;2.75;1.00;;;;;19.83;55.42;100649.91;5081155;27;45769;-76
2023/08/26 08:25:55;;;;;;;;;0.75;0.75;;;;;19.90;55.30;100659.16;5077836;27;45416;-77
2023/08/26 08:28:20;;;;;;;;;0.75;0.75;;;;;19.97;55.28;100656.09;5058476;28;75132;-77
2023/08/26 08:30:45;;;;;;;;;1.00;1.00;;;;;19.96;54.92;100668.53;5065170;28;47345;-78
2023/08/26 08:33:11;;;;;;;;;2.00;1.00;;;;;19.97;54.84;100667.56;5068089;27;45470;-77
2023/08/26 08:35:37;;;;;;;;;1.00;1.00;;;;;19.99;55.08;100662.16;5073015;28;45462;-78
2023/08/26 08:38:02;;;;;;;;;1.00;1.00;;;;;20.02;54.41;100659.28;5077030;28;45473;-77
2023/08/26 08:40:28;;;;;;;;;3.00;1.00;;;;;20.05;54.64;100661.75;5067728;28;45513;-76
2023/08/26 08:42:54;;;;;;;;;0.50;0.50;;;;;20.12;54.96;100660.38;5084276;27;55150;-75
2023/08/26 08:45:20;;;;;;;;;1.00;1.00;;;;;20.20;54.04;100657.16;5064771;28;45518;-73
2023/08/26 08:47:46;;;;;;;;;3.00;1.50;;;;;20.23;54.11;100660.47;5060499;28;54261;-73
2023/08/26 08:50:14;;;;;;;;;1.00;1.00;;;;;20.30;53.73;100667.06;5070798;28;46996;-79
2023/08/26 08:52:42;;;;;;;;;0.00;0.00;;;;;20.32;53.85;100666.13;5053778;28;45467;-75
2023/08/26 08:55:08;;;;;;;;;1.00;0.75;;;;;20.38;53.83;100674.53;5075464;28;45344;-75
2023/08/26 08:57:35;;;;;;;;;0.00;0.00;;;;;20.40;53.61;100674.44;5079855;28;45370;-77
2023/08/26 09:00:00;;;;;;;;;2.00;1.00;;;;;20.42;53.50;100664.53;5065241;28;45510;-76
2023/08/26 09:02:29;;;;;;;;;3.00;1.00;;;;;20.50;53.69;100664.81;5060728;28;56334;-74
2023/08/26 09:04:55;;;;;;;;;3.00;1.00;;;;;20.63;53.18;100667.53;5064648;28;45383;-76
2023/08/26 09:07:21;;;;;;;;;2.00;1.00;;;;;20.76;53.21;100663.03;5080424;27;56680;-69
2023/08/26 09:09:47;;;;;;;;;2.25;2.00;;;;;20.86;53.34;100672.06;5066516;28;45395;-71
2023/08/26 09:12:12;;;;;;;;;1.00;1.00;;;;;20.89;52.73;100675.47;5077050;28;45379;-78
2023/08/26 09:14:37;;;;;;;;;1.00;1.00;;;;;20.91;53.25;100679.72;5070836;28;58964;-73
2023/08/26 09:17:19;;;;;;;;;2.00;2.00;;;;;20.87;51.89;100675.56;5072295;28;62485;-70
2023/08/26 09:19:52;;;;;;;;;2.00;2.00;;;;;20.80;52.63;100676.97;5065014;28;45474;-73
2023/08/26 09:22:19;;;;;;;;;1.25;1.25;;;;;20.82;51.39;100683.88;5080112;27;45647;-72
2023/08/26 09:24:45;;;;;;;;;1.25;1.00;;;;;20.84;52.21;100665.13;5064541;28;45300;-74
2023/08/26 09:27:10;;;;;;;;;3.50;1.00;;;;;20.90;51.72;100671.84;5068699;28;45433;-74
2023/08/26 09:29:38;;;;;;;;;1.00;1.00;;;;;20.89;51.70;100686.09;5072787;28;74672;-72
2023/08/26 09:32:03;;;;;;;;;3.00;1.25;;;;;20.84;51.43;100679.31;5074141;27;45465;-76
2023/08/26 09:34:30;;;;;;;;;1.00;1.00;;;;;20.92;51.93;100688.53;5063294;28;45545;-80
2023/08/26 09:36:56;;;;;;;;;1.00;1.00;;;;;20.84;51.07;100671.31;5072566;27;46013;-74
2023/08/26 09:39:21;;;;;;;;;1.25;0.75;;;;;20.92;50.74;100677.91;5045349;28;46326;-76
2023/08/26 09:41:47;;;;;;;;;0.75;0.75;;;;;20.96;50.26;100672.22;5064538;27;45442;-74
2023/08/26 09:44:15;;;;;;;;;1.50;1.00;;;;;21.02;51.07;100671.81;5082256;27;45457;-76
2023/08/26 09:46:42;;;;;;;;;0.50;0.50;;;;;21.09;50.72;100674.88;5075033;27;45307;-73
2023/08/26 09:49:07;;;;;;;;;0.50;0.50;;;;;21.11;51.16;100669.47;5086292;27;47525;-68
2023/08/26 09:51:33;;;;;;;;;2.75;1.00;;;;;21.06;51.46;100667.13;5072402;27;45334;-68
2023/08/26 09:53:59;;;;;;;;;1.00;1.00;;;;;21.04;50.96;100656.59;5096073;27;45266;-70
2023/08/26 09:56:28;;;;;;;;;1.00;1.00;;;;;21.08;50.03;100659.88;5066648;28;46349;-68
2023/08/26 09:58:55;;;;;;;;;1.75;0.00;;;;;21.06;50.76;100659.13;5078491;27;60114;-73
2023/08/26 10:01:21;;;;;;;;;0.50;0.50;;;;;21.07;50.23;100668.84;5073904;27;45435;-68
2023/08/26 10:04:10;;;;;;;;;0.25;0.25;;;;;21.00;50.49;100659.56;5082515;27;45743;-72
2023/08/26 10:06:40;;;;;;;;;1.00;1.00;;;;;21.05;50.19;100654.75;5074452;27;46421;-72
2023/08/26 10:09:12;;;;;;;;;3.00;1.25;;;;;21.25;49.88;100661.31;5061585;27;46289;-76
2023/08/26 10:11:40;;;;;;;;;1.00;1.00;;;;;21.49;49.56;100650.69;5070066;28;45685;-76
2023/08/26 10:14:10;;;;;;;;;0.00;0.00;;;;;21.65;48.88;100652.22;5065110;28;45501;-75
2023/08/26 10:16:36;;;;;;;;;1.00;0.00;;;;;21.71;47.85;100646.41;5052601;28;45506;-75
2023/08/26 10:19:03;;;;;;;;;1.50;0.25;;;;;21.72;48.92;100650.78;5062119;28;58622;-72
2023/08/26 10:21:29;;;;;;;;;1.00;1.00;;;;;21.71;48.70;100649.94;5086600;27;45671;-72
2023/08/26 10:23:54;;;;;;;;;2.00;1.00;;;;;21.73;48.62;100647.16;5053132;28;68927;-71
2023/08/26 10:26:20;;;;;;;;;1.75;0.50;;;;;21.85;48.42;100645.38;5064788;28;69845;-72
2023/08/26 10:28:47;;;;;;;;;1.75;1.75;;;;;21.94;47.94;100652.69;5074328;28;46085;-73
2023/08/26 10:31:14;;;;;;;;;1.00;1.00;;;;;21.99;48.21;100651.38;5074176;28;45334;-69
2023/08/26 10:34:00;;;;;;;;;2.75;1.00;;;;;22.07;47.59;100648.09;5069649;28;45276;-69
2023/08/26 10:36:26;;;;;;;;;1.00;1.00;;;;;22.17;47.11;100645.59;5071933;28;45781;-73
2023/08/26 10:38:58;;;;;;;;;2.00;1.00;;;;;22.36;46.49;100647.69;5067639;28;46172;-71
2023/08/26 10:41:25;;;;;;;;;0.00;0.00;;;;;22.46;46.04;100643.34;5079401;28;45285;-71
2023/08/26 10:43:54;;;;;;;;;2.50;1.00;;;;;22.59;46.66;100642.38;5078698;28;45476;-73
2023/08/26 10:46:33;;;;;;;;;1.00;1.00;;;;;22.72;46.54;100651.94;5074702;28;45570;-73
2023/08/26 10:49:03;;;;;;;;;1.00;1.00;;;;;22.74;46.66;100644.66;5076263;27;45834;-72
2023/08/26 10:51:29;;;;;;;;;3.25;2.00;;;;;22.73;45.14;100645.66;5077237;28;45703;-70
2023/08/26 10:54:02;;;;;;;;;1.75;1.00;;;;;22.74;46.51;100638.50;5077897;28;45419;-71
2023/08/26 10:56:33;;;;;;;;;1.25;1.00;;;;;22.78;46.50;100626.59;5094294;27;45446;-71
2023/08/26 10:59:03;;;;;;;;;5.00;1.25;;;;;22.83;46.06;100643.09;5074424;27;47163;-71
2023/08/26 11:01:35;;;;;;;;;0.00;0.00;;;;;22.78;45.75;100637.25;5078441;28;45425;-72
2023/08/26 11:04:01;;;;;;;;;2.50;0.75;;;;;22.68;46.59;100620.28;5077680;27;45548;-73
2023/08/26 11:06:28;;;;;;;;;2.00;0.50;;;;;22.72;46.71;100627.09;5071741;28;45379;-71
2023/08/26 11:08:55;;;;;;;;;0.25;0.25;;;;;22.60;45.84;100617.41;5070528;27;46389;-71
2023/08/26 11:11:20;;;;;;;;;1.00;1.00;;;;;22.47;45.71;100623.72;5066061;28;45697;-72
2023/08/26 11:13:47;;;;;;;;;1.00;1.00;;;;;22.40;46.53;100618.97;5079867;28;45251;-72
2023/08/26 11:16:14;;;;;;;;;1.00;0.75;;;;;22.35;46.13;100614.00;5064498;28;45413;-72
2023/08/26 11:18:39;;;;;;;;;5.50;4.00;;;;;22.39;45.86;100615.47;5074380;27;47225;-73
2023/08/26 11:21:05;;;;;;;;;2.50;2.00;;;;;22.44;45.88;100607.09;5090515;27;45446;-73